sensor_id;sensor_type;location;lat;lon;timestamp;P1;durP1;ratioP1;P2;durP2;ratioP2
16113;SDS011;8161;-33.910;151.156;2022-09-09T00:04:00;3.60;;;1.30;;
16113;SDS011;8161;-33.910;151.156;2022-09-09T00:06:43;2.95;;;1.13;;
16113;SDS011;8161;-33.910;151.156;2022-09-09T00:09:21;2.17;;;1.08;;
16113;SDS011;8161;-33.910;151.156;2022-09-09T00:12:02;1.50;;;1.05;;
16113;SDS011;8161;-33.910;151.156;2022-09-09T00:15:00;2.63;;;1.10;;
16113;SDS011;8161;-33.910;151.156;2022-09-09T00:20:38;2.15;;;0.95;;
16113;SDS011;8161;-33.910;151.156;2022-09-09T00:23:27;2.15;;;1.20;;
16113;SDS011;8161;-33.910;151.156;2022-09-09T00:31:34;3.10;;;0.95;;
16113;SDS011;8161;-33.910;151.156;2022-09-09T00:34:12;1.83;;;0.98;;
16113;SDS011;8161;-33.910;151.156;2022-09-09T00:36:45;2.40;;;1.05;;
16113;SDS011;8161;-33.910;151.156;2022-09-09T00:39:41;3.53;;;1.27;;
16113;SDS011;8161;-33.910;151.156;2022-09-09T00:42:15;3.92;;;1.50;;
16113;SDS011;8161;-33.910;151.156;2022-09-09T00:47:52;2.78;;;1.20;;
16113;SDS011;8161;-33.910;151.156;2022-09-09T00:50:29;1.48;;;1.00;;
16113;SDS011;8161;-33.910;151.156;2022-09-09T00:56:16;3.13;;;0.90;;
16113;SDS011;8161;-33.910;151.156;2022-09-09T00:58:42;1.67;;;0.93;;
16113;SDS011;8161;-33.910;151.156;2022-09-09T01:01:15;2.28;;;0.90;;
16113;SDS011;8161;-33.910;151.156;2022-09-09T01:03:46;2.75;;;1.02;;
16113;SDS011;8161;-33.910;151.156;2022-09-09T01:19:49;5.05;;;1.27;;
16113;SDS011;8161;-33.910;151.156;2022-09-09T01:27:48;2.70;;;1.38;;
16113;SDS011;8161;-33.910;151.156;2022-09-09T01:30:17;2.05;;;1.15;;
16113;SDS011;8161;-33.910;151.156;2022-09-09T01:32:46;2.78;;;1.05;;
16113;SDS011;8161;-33.910;151.156;2022-09-09T01:38:23;2.55;;;0.90;;
16113;SDS011;8161;-33.910;151.156;2022-09-09T01:40:51;1.92;;;1.00;;
16113;SDS011;8161;-33.910;151.156;2022-09-09T01:43:20;2.40;;;0.65;;
16113;SDS011;8161;-33.910;151.156;2022-09-09T01:45:49;1.15;;;0.70;;
16113;SDS011;8161;-33.910;151.156;2022-09-09T01:48:20;0.70;;;0.50;;
16113;SDS011;8161;-33.910;151.156;2022-09-09T01:50:50;0.82;;;0.60;;
16113;SDS011;8161;-33.910;151.156;2022-09-09T01:53:18;3.22;;;0.65;;
16113;SDS011;8161;-33.910;151.156;2022-09-09T01:59:37;1.50;;;0.80;;
16113;SDS011;8161;-33.910;151.156;2022-09-09T02:02:16;1.30;;;0.50;;
16113;SDS011;8161;-33.910;151.156;2022-09-09T02:07:49;2.60;;;0.85;;
16113;SDS011;8161;-33.910;151.156;2022-09-09T02:10:20;3.72;;;0.88;;
16113;SDS011;8161;-33.910;151.156;2022-09-09T02:12:55;1.48;;;0.68;;
16113;SDS011;8161;-33.910;151.156;2022-09-09T02:18:17;1.33;;;0.75;;
16113;SDS011;8161;-33.910;151.156;2022-09-09T02:21:02;3.90;;;1.98;;
16113;SDS011;8161;-33.910;151.156;2022-09-09T02:23:31;2.28;;;1.00;;
16113;SDS011;8161;-33.910;151.156;2022-09-09T02:26:02;0.88;;;0.70;;
16113;SDS011;8161;-33.910;151.156;2022-09-09T02:28:31;0.52;;;0.45;;
16113;SDS011;8161;-33.910;151.156;2022-09-09T02:31:01;0.60;;;0.50;;
16113;SDS011;8161;-33.910;151.156;2022-09-09T02:33:30;2.13;;;0.65;;
16113;SDS011;8161;-33.910;151.156;2022-09-09T02:36:02;1.30;;;0.50;;
16113;SDS011;8161;-33.910;151.156;2022-09-09T02:38:33;1.23;;;0.45;;
16113;SDS011;8161;-33.910;151.156;2022-09-09T02:41:05;0.98;;;0.50;;
16113;SDS011;8161;-33.910;151.156;2022-09-09T02:43:33;1.15;;;0.55;;
16113;SDS011;8161;-33.910;151.156;2022-09-09T02:49:03;2.00;;;0.70;;
16113;SDS011;8161;-33.910;151.156;2022-09-09T02:52:20;0.60;;;0.40;;
16113;SDS011;8161;-33.910;151.156;2022-09-09T02:54:33;2.25;;;1.40;;
16113;SDS011;8161;-33.910;151.156;2022-09-09T02:57:11;1.40;;;0.90;;
16113;SDS011;8161;-33.910;151.156;2022-09-09T02:59:59;1.35;;;0.65;;
16113;SDS011;8161;-33.910;151.156;2022-09-09T03:02:28;0.70;;;0.60;;
16113;SDS011;8161;-33.910;151.156;2022-09-09T03:04:55;0.88;;;0.50;;
16113;SDS011;8161;-33.910;151.156;2022-09-09T03:07:24;0.80;;;0.45;;
16113;SDS011;8161;-33.910;151.156;2022-09-09T03:09:52;0.77;;;0.50;;
16113;SDS011;8161;-33.910;151.156;2022-09-09T03:12:20;1.20;;;0.40;;
16113;SDS011;8161;-33.910;151.156;2022-09-09T03:14:47;1.50;;;0.60;;
16113;SDS011;8161;-33.910;151.156;2022-09-09T03:17:15;1.60;;;0.50;;
16113;SDS011;8161;-33.910;151.156;2022-09-09T03:19:42;0.40;;;0.40;;
16113;SDS011;8161;-33.910;151.156;2022-09-09T03:22:10;2.97;;;0.50;;
16113;SDS011;8161;-33.910;151.156;2022-09-09T03:24:38;0.47;;;0.35;;
16113;SDS011;8161;-33.910;151.156;2022-09-09T03:27:06;1.27;;;0.60;;
16113;SDS011;8161;-33.910;151.156;2022-09-09T03:29:33;1.02;;;0.50;;
16113;SDS011;8161;-33.910;151.156;2022-09-09T03:32:00;0.63;;;0.50;;
16113;SDS011;8161;-33.910;151.156;2022-09-09T03:34:28;1.40;;;0.68;;
16113;SDS011;8161;-33.910;151.156;2022-09-09T03:36:55;0.88;;;0.60;;
16113;SDS011;8161;-33.910;151.156;2022-09-09T03:39:23;0.80;;;0.57;;
16113;SDS011;8161;-33.910;151.156;2022-09-09T03:41:50;1.02;;;0.50;;
16113;SDS011;8161;-33.910;151.156;2022-09-09T03:44:17;1.33;;;0.50;;
16113;SDS011;8161;-33.910;151.156;2022-09-09T03:46:44;0.55;;;0.43;;
16113;SDS011;8161;-33.910;151.156;2022-09-09T03:49:12;0.57;;;0.40;;
16113;SDS011;8161;-33.910;151.156;2022-09-09T03:51:40;0.63;;;0.43;;
16113;SDS011;8161;-33.910;151.156;2022-09-09T03:54:08;2.05;;;0.50;;
16113;SDS011;8161;-33.910;151.156;2022-09-09T03:56:36;2.25;;;0.50;;
16113;SDS011;8161;-33.910;151.156;2022-09-09T03:59:04;0.57;;;0.52;;
16113;SDS011;8161;-33.910;151.156;2022-09-09T04:01:34;1.40;;;0.50;;
16113;SDS011;8161;-33.910;151.156;2022-09-09T04:04:01;0.55;;;0.50;;
16113;SDS011;8161;-33.910;151.156;2022-09-09T04:06:29;3.85;;;0.90;;
16113;SDS011;8161;-33.910;151.156;2022-09-09T04:08:57;2.58;;;0.60;;
16113;SDS011;8161;-33.910;151.156;2022-09-09T04:11:24;3.15;;;0.98;;
16113;SDS011;8161;-33.910;151.156;2022-09-09T04:13:52;0.98;;;0.75;;
16113;SDS011;8161;-33.910;151.156;2022-09-09T04:16:19;4.78;;;0.98;;
16113;SDS011;8161;-33.910;151.156;2022-09-09T04:18:47;1.77;;;0.88;;
16113;SDS011;8161;-33.910;151.156;2022-09-09T04:21:14;4.78;;;1.00;;
16113;SDS011;8161;-33.910;151.156;2022-09-09T04:23:46;2.28;;;0.60;;
16113;SDS011;8161;-33.910;151.156;2022-09-09T04:26:13;3.42;;;1.60;;
16113;SDS011;8161;-33.910;151.156;2022-09-09T04:28:40;3.22;;;0.77;;
16113;SDS011;8161;-33.910;151.156;2022-09-09T04:31:09;2.67;;;0.82;;
16113;SDS011;8161;-33.910;151.156;2022-09-09T04:33:40;1.98;;;0.60;;
16113;SDS011;8161;-33.910;151.156;2022-09-09T04:36:08;3.25;;;0.50;;
16113;SDS011;8161;-33.910;151.156;2022-09-09T04:38:35;1.67;;;0.95;;
16113;SDS011;8161;-33.910;151.156;2022-09-09T04:41:02;1.95;;;0.57;;
16113;SDS011;8161;-33.910;151.156;2022-09-09T04:43:30;0.75;;;0.50;;
16113;SDS011;8161;-33.910;151.156;2022-09-09T04:45:58;1.90;;;0.50;;
16113;SDS011;8161;-33.910;151.156;2022-09-09T04:48:25;2.90;;;0.80;;
16113;SDS011;8161;-33.910;151.156;2022-09-09T04:50:57;2.40;;;0.70;;
16113;SDS011;8161;-33.910;151.156;2022-09-09T04:53:25;2.88;;;0.60;;
16113;SDS011;8161;-33.910;151.156;2022-09-09T04:56:00;1.38;;;0.40;;
16113;SDS011;8161;-33.910;151.156;2022-09-09T04:58:28;1.77;;;0.50;;
16113;SDS011;8161;-33.910;151.156;2022-09-09T05:01:06;0.70;;;0.50;;
16113;SDS011;8161;-33.910;151.156;2022-09-09T05:03:34;0.85;;;0.40;;
16113;SDS011;8161;-33.910;151.156;2022-09-09T05:06:23;2.78;;;1.05;;
16113;SDS011;8161;-33.910;151.156;2022-09-09T05:08:50;0.90;;;0.40;;
16113;SDS011;8161;-33.910;151.156;2022-09-09T05:11:24;0.88;;;0.50;;
16113;SDS011;8161;-33.910;151.156;2022-09-09T05:13:53;0.68;;;0.50;;
16113;SDS011;8161;-33.910;151.156;2022-09-09T05:16:21;1.08;;;0.75;;
16113;SDS011;8161;-33.910;151.156;2022-09-09T05:18:50;0.65;;;0.40;;
16113;SDS011;8161;-33.910;151.156;2022-09-09T05:21:17;1.05;;;0.60;;
16113;SDS011;8161;-33.910;151.156;2022-09-09T05:23:46;0.52;;;0.47;;
16113;SDS011;8161;-33.910;151.156;2022-09-09T05:26:18;0.60;;;0.57;;
16113;SDS011;8161;-33.910;151.156;2022-09-09T05:28:47;0.95;;;0.50;;
16113;SDS011;8161;-33.910;151.156;2022-09-09T05:31:15;1.95;;;0.50;;
16113;SDS011;8161;-33.910;151.156;2022-09-09T05:33:45;1.30;;;0.65;;
16113;SDS011;8161;-33.910;151.156;2022-09-09T05:36:14;1.23;;;0.60;;
16113;SDS011;8161;-33.910;151.156;2022-09-09T05:38:43;0.75;;;0.60;;
16113;SDS011;8161;-33.910;151.156;2022-09-09T05:41:11;12.52;;;1.35;;
16113;SDS011;8161;-33.910;151.156;2022-09-09T05:43:43;5.55;;;1.42;;
16113;SDS011;8161;-33.910;151.156;2022-09-09T05:46:13;6.65;;;1.77;;
16113;SDS011;8161;-33.910;151.156;2022-09-09T05:48:43;11.43;;;2.47;;
16113;SDS011;8161;-33.910;151.156;2022-09-09T05:51:16;9.63;;;2.38;;
16113;SDS011;8161;-33.910;151.156;2022-09-09T05:53:47;16.27;;;3.00;;
16113;SDS011;8161;-33.910;151.156;2022-09-09T05:56:16;16.85;;;3.60;;
16113;SDS011;8161;-33.910;151.156;2022-09-09T05:58:45;7.47;;;2.65;;
16113;SDS011;8161;-33.910;151.156;2022-09-09T06:01:14;11.48;;;2.50;;
16113;SDS011;8161;-33.910;151.156;2022-09-09T06:03:44;3.53;;;1.13;;
16113;SDS011;8161;-33.910;151.156;2022-09-09T06:06:13;2.03;;;1.08;;
16113;SDS011;8161;-33.910;151.156;2022-09-09T06:08:52;2.05;;;0.93;;
16113;SDS011;8161;-33.910;151.156;2022-09-09T06:11:32;2.28;;;1.27;;
16113;SDS011;8161;-33.910;151.156;2022-09-09T06:14:01;1.98;;;0.88;;
16113;SDS011;8161;-33.910;151.156;2022-09-09T06:16:30;2.53;;;1.20;;
16113;SDS011;8161;-33.910;151.156;2022-09-09T06:19:03;1.55;;;0.65;;
16113;SDS011;8161;-33.910;151.156;2022-09-09T06:21:31;1.50;;;0.68;;
16113;SDS011;8161;-33.910;151.156;2022-09-09T06:24:06;1.15;;;0.70;;
16113;SDS011;8161;-33.910;151.156;2022-09-09T06:26:34;3.00;;;0.93;;
16113;SDS011;8161;-33.910;151.156;2022-09-09T06:29:06;0.90;;;0.70;;
16113;SDS011;8161;-33.910;151.156;2022-09-09T06:31:34;2.25;;;0.75;;
16113;SDS011;8161;-33.910;151.156;2022-09-09T06:34:06;1.30;;;0.80;;
16113;SDS011;8161;-33.910;151.156;2022-09-09T06:36:35;1.80;;;0.80;;
16113;SDS011;8161;-33.910;151.156;2022-09-09T06:39:04;1.20;;;0.80;;
16113;SDS011;8161;-33.910;151.156;2022-09-09T06:41:32;1.48;;;0.70;;
16113;SDS011;8161;-33.910;151.156;2022-09-09T06:44:00;3.53;;;1.17;;
16113;SDS011;8161;-33.910;151.156;2022-09-09T06:46:29;3.55;;;1.02;;
16113;SDS011;8161;-33.910;151.156;2022-09-09T06:48:58;1.85;;;0.80;;
16113;SDS011;8161;-33.910;151.156;2022-09-09T06:51:30;1.65;;;1.00;;
16113;SDS011;8161;-33.910;151.156;2022-09-09T06:54:00;3.30;;;1.17;;
16113;SDS011;8161;-33.910;151.156;2022-09-09T06:56:29;2.85;;;1.23;;
16113;SDS011;8161;-33.910;151.156;2022-09-09T06:58:59;4.07;;;1.33;;
16113;SDS011;8161;-33.910;151.156;2022-09-09T07:01:30;1.92;;;1.10;;
16113;SDS011;8161;-33.910;151.156;2022-09-09T07:03:58;4.85;;;1.27;;
16113;SDS011;8161;-33.910;151.156;2022-09-09T07:06:27;3.92;;;1.77;;
16113;SDS011;8161;-33.910;151.156;2022-09-09T07:08:58;5.63;;;1.90;;
16113;SDS011;8161;-33.910;151.156;2022-09-09T07:11:30;6.80;;;2.28;;
16113;SDS011;8161;-33.910;151.156;2022-09-09T07:13:59;6.22;;;2.10;;
16113;SDS011;8161;-33.910;151.156;2022-09-09T07:16:27;7.53;;;2.78;;
16113;SDS011;8161;-33.910;151.156;2022-09-09T07:18:56;9.23;;;2.22;;
16113;SDS011;8161;-33.910;151.156;2022-09-09T07:21:25;8.23;;;2.65;;
16113;SDS011;8161;-33.910;151.156;2022-09-09T07:23:53;8.10;;;2.60;;
16113;SDS011;8161;-33.910;151.156;2022-09-09T07:26:22;11.55;;;2.90;;
16113;SDS011;8161;-33.910;151.156;2022-09-09T07:28:52;16.35;;;2.78;;
16113;SDS011;8161;-33.910;151.156;2022-09-09T07:31:25;11.45;;;3.17;;
16113;SDS011;8161;-33.910;151.156;2022-09-09T07:33:57;11.38;;;3.30;;
16113;SDS011;8161;-33.910;151.156;2022-09-09T07:36:27;7.05;;;2.80;;
16113;SDS011;8161;-33.910;151.156;2022-09-09T07:38:59;8.45;;;2.75;;
16113;SDS011;8161;-33.910;151.156;2022-09-09T07:41:31;9.20;;;2.65;;
16113;SDS011;8161;-33.910;151.156;2022-09-09T07:44:04;7.63;;;3.40;;
16113;SDS011;8161;-33.910;151.156;2022-09-09T07:46:34;10.68;;;3.40;;
16113;SDS011;8161;-33.910;151.156;2022-09-09T07:49:02;9.48;;;3.08;;
16113;SDS011;8161;-33.910;151.156;2022-09-09T07:51:32;7.55;;;2.78;;
16113;SDS011;8161;-33.910;151.156;2022-09-09T07:54:03;9.82;;;2.95;;
16113;SDS011;8161;-33.910;151.156;2022-09-09T07:56:33;6.05;;;2.92;;
16113;SDS011;8161;-33.910;151.156;2022-09-09T07:59:01;5.40;;;2.90;;
16113;SDS011;8161;-33.910;151.156;2022-09-09T08:01:33;10.70;;;2.97;;
16113;SDS011;8161;-33.910;151.156;2022-09-09T08:04:05;9.07;;;2.53;;
16113;SDS011;8161;-33.910;151.156;2022-09-09T08:06:39;3.92;;;2.10;;
16113;SDS011;8161;-33.910;151.156;2022-09-09T08:09:07;7.32;;;2.88;;
16113;SDS011;8161;-33.910;151.156;2022-09-09T08:11:36;6.63;;;3.05;;
16113;SDS011;8161;-33.910;151.156;2022-09-09T08:14:05;7.05;;;2.95;;
16113;SDS011;8161;-33.910;151.156;2022-09-09T08:16:34;9.90;;;3.25;;
16113;SDS011;8161;-33.910;151.156;2022-09-09T08:19:04;5.68;;;2.88;;
16113;SDS011;8161;-33.910;151.156;2022-09-09T08:21:33;6.65;;;2.70;;
16113;SDS011;8161;-33.910;151.156;2022-09-09T08:24:03;5.20;;;2.20;;
16113;SDS011;8161;-33.910;151.156;2022-09-09T08:26:32;7.43;;;2.38;;
16113;SDS011;8161;-33.910;151.156;2022-09-09T08:29:01;8.43;;;2.60;;
16113;SDS011;8161;-33.910;151.156;2022-09-09T08:31:33;6.50;;;2.20;;
16113;SDS011;8161;-33.910;151.156;2022-09-09T08:34:04;12.73;;;2.35;;
16113;SDS011;8161;-33.910;151.156;2022-09-09T08:36:34;10.25;;;2.25;;
16113;SDS011;8161;-33.910;151.156;2022-09-09T08:39:08;10.18;;;2.85;;
16113;SDS011;8161;-33.910;151.156;2022-09-09T08:41:39;6.53;;;2.40;;
16113;SDS011;8161;-33.910;151.156;2022-09-09T08:58:23;5.45;;;2.20;;
16113;SDS011;8161;-33.910;151.156;2022-09-09T09:11:58;2.92;;;2.20;;
16113;SDS011;8161;-33.910;151.156;2022-09-09T09:14:29;6.68;;;2.15;;
16113;SDS011;8161;-33.910;151.156;2022-09-09T09:17:03;10.50;;;2.42;;
16113;SDS011;8161;-33.910;151.156;2022-09-09T09:19:41;2.95;;;2.05;;
16113;SDS011;8161;-33.910;151.156;2022-09-09T09:22:17;5.13;;;2.50;;
16113;SDS011;8161;-33.910;151.156;2022-09-09T09:27:52;7.72;;;2.60;;
16113;SDS011;8161;-33.910;151.156;2022-09-09T09:30:38;7.25;;;2.45;;
16113;SDS011;8161;-33.910;151.156;2022-09-09T09:36:09;4.18;;;1.92;;
16113;SDS011;8161;-33.910;151.156;2022-09-09T09:38:51;4.22;;;1.92;;
16113;SDS011;8161;-33.910;151.156;2022-09-09T09:41:58;4.70;;;2.17;;
16113;SDS011;8161;-33.910;151.156;2022-09-09T09:46:47;6.28;;;1.83;;
16113;SDS011;8161;-33.910;151.156;2022-09-09T09:49:14;4.13;;;1.80;;
16113;SDS011;8161;-33.910;151.156;2022-09-09T09:51:42;3.58;;;1.63;;
16113;SDS011;8161;-33.910;151.156;2022-09-09T09:57:11;1.77;;;1.30;;
16113;SDS011;8161;-33.910;151.156;2022-09-09T09:59:40;8.40;;;1.70;;
16113;SDS011;8161;-33.910;151.156;2022-09-09T10:02:16;2.50;;;1.13;;
16113;SDS011;8161;-33.910;151.156;2022-09-09T10:07:39;3.05;;;1.38;;
16113;SDS011;8161;-33.910;151.156;2022-09-09T10:10:09;4.63;;;1.40;;
16113;SDS011;8161;-33.910;151.156;2022-09-09T10:12:55;1.70;;;1.13;;
16113;SDS011;8161;-33.910;151.156;2022-09-09T10:38:10;2.25;;;1.35;;
16113;SDS011;8161;-33.910;151.156;2022-09-09T10:40:45;3.63;;;1.63;;
16113;SDS011;8161;-33.910;151.156;2022-09-09T10:49:18;2.90;;;1.58;;
16113;SDS011;8161;-33.910;151.156;2022-09-09T10:57:46;1.75;;;1.10;;
16113;SDS011;8161;-33.910;151.156;2022-09-09T11:03:21;1.63;;;1.08;;
16113;SDS011;8161;-33.910;151.156;2022-09-09T11:06:04;1.02;;;0.90;;
16113;SDS011;8161;-33.910;151.156;2022-09-09T11:08:35;1.80;;;1.20;;
16113;SDS011;8161;-33.910;151.156;2022-09-09T11:14:10;1.83;;;1.08;;
16113;SDS011;8161;-33.910;151.156;2022-09-09T11:16:49;1.88;;;1.13;;
16113;SDS011;8161;-33.910;151.156;2022-09-09T11:21:57;1.52;;;0.90;;
16113;SDS011;8161;-33.910;151.156;2022-09-09T11:24:38;2.65;;;0.88;;
16113;SDS011;8161;-33.910;151.156;2022-09-09T11:37:50;1.65;;;1.45;;
16113;SDS011;8161;-33.910;151.156;2022-09-09T11:40:35;2.33;;;1.35;;
16113;SDS011;8161;-33.910;151.156;2022-09-09T11:45:53;1.52;;;1.20;;
16113;SDS011;8161;-33.910;151.156;2022-09-09T11:51:09;4.45;;;0.93;;
16113;SDS011;8161;-33.910;151.156;2022-09-09T11:58:55;1.80;;;0.95;;
16113;SDS011;8161;-33.910;151.156;2022-09-09T12:04:11;1.27;;;0.90;;
16113;SDS011;8161;-33.910;151.156;2022-09-09T12:06:54;1.75;;;1.08;;
16113;SDS011;8161;-33.910;151.156;2022-09-09T12:14:44;1.52;;;0.90;;
16113;SDS011;8161;-33.910;151.156;2022-09-09T12:17:23;1.35;;;1.00;;
16113;SDS011;8161;-33.910;151.156;2022-09-09T12:22:38;1.33;;;0.80;;
16113;SDS011;8161;-33.910;151.156;2022-09-09T12:33:49;0.90;;;0.60;;
16113;SDS011;8161;-33.910;151.156;2022-09-09T12:38:47;1.10;;;0.60;;
16113;SDS011;8161;-33.910;151.156;2022-09-09T12:43:50;0.80;;;0.65;;
16113;SDS011;8161;-33.910;151.156;2022-09-09T12:49:04;0.90;;;0.47;;
16113;SDS011;8161;-33.910;151.156;2022-09-09T12:51:32;0.90;;;0.70;;
16113;SDS011;8161;-33.910;151.156;2022-09-09T12:54:00;2.47;;;0.70;;
16113;SDS011;8161;-33.910;151.156;2022-09-09T12:56:28;0.80;;;0.52;;
16113;SDS011;8161;-33.910;151.156;2022-09-09T12:58:57;0.82;;;0.50;;
16113;SDS011;8161;-33.910;151.156;2022-09-09T13:01:30;0.88;;;0.70;;
16113;SDS011;8161;-33.910;151.156;2022-09-09T13:04:01;0.70;;;0.55;;
16113;SDS011;8161;-33.910;151.156;2022-09-09T13:06:30;0.90;;;0.57;;
16113;SDS011;8161;-33.910;151.156;2022-09-09T13:09:00;0.85;;;0.30;;
16113;SDS011;8161;-33.910;151.156;2022-09-09T13:11:36;2.05;;;0.50;;
16113;SDS011;8161;-33.910;151.156;2022-09-09T13:14:14;1.00;;;0.60;;
16113;SDS011;8161;-33.910;151.156;2022-09-09T13:16:54;0.70;;;0.60;;
16113;SDS011;8161;-33.910;151.156;2022-09-09T13:19:24;1.02;;;0.52;;
16113;SDS011;8161;-33.910;151.156;2022-09-09T13:21:54;0.95;;;0.60;;
16113;SDS011;8161;-33.910;151.156;2022-09-09T13:27:01;0.82;;;0.40;;
16113;SDS011;8161;-33.910;151.156;2022-09-09T13:29:31;0.60;;;0.40;;
16113;SDS011;8161;-33.910;151.156;2022-09-09T13:32:05;0.60;;;0.50;;
16113;SDS011;8161;-33.910;151.156;2022-09-09T13:34:58;2.28;;;0.57;;
16113;SDS011;8161;-33.910;151.156;2022-09-09T13:37:38;0.50;;;0.30;;
16113;SDS011;8161;-33.910;151.156;2022-09-09T13:40:18;0.40;;;0.40;;
16113;SDS011;8161;-33.910;151.156;2022-09-09T13:42:55;1.63;;;0.40;;
16113;SDS011;8161;-33.910;151.156;2022-09-09T13:45:24;3.83;;;0.30;;
16113;SDS011;8161;-33.910;151.156;2022-09-09T13:47:55;0.63;;;0.30;;
16113;SDS011;8161;-33.910;151.156;2022-09-09T13:50:23;0.55;;;0.40;;
16113;SDS011;8161;-33.910;151.156;2022-09-09T13:52:57;0.50;;;0.20;;
16113;SDS011;8161;-33.910;151.156;2022-09-09T13:55:28;1.92;;;0.52;;
16113;SDS011;8161;-33.910;151.156;2022-09-09T13:58:00;0.35;;;0.30;;
16113;SDS011;8161;-33.910;151.156;2022-09-09T14:00:32;0.35;;;0.22;;
16113;SDS011;8161;-33.910;151.156;2022-09-09T14:03:00;1.40;;;0.52;;
16113;SDS011;8161;-33.910;151.156;2022-09-09T14:05:27;0.85;;;0.40;;
16113;SDS011;8161;-33.910;151.156;2022-09-09T14:07:57;0.88;;;0.50;;
16113;SDS011;8161;-33.910;151.156;2022-09-09T14:10:26;0.77;;;0.30;;
16113;SDS011;8161;-33.910;151.156;2022-09-09T14:12:53;0.32;;;0.25;;
16113;SDS011;8161;-33.910;151.156;2022-09-09T14:15:21;1.52;;;0.40;;
16113;SDS011;8161;-33.910;151.156;2022-09-09T14:17:49;3.00;;;0.43;;
16113;SDS011;8161;-33.910;151.156;2022-09-09T14:20:17;0.35;;;0.30;;
16113;SDS011;8161;-33.910;151.156;2022-09-09T14:22:45;0.68;;;0.40;;
16113;SDS011;8161;-33.910;151.156;2022-09-09T14:25:12;2.13;;;0.30;;
16113;SDS011;8161;-33.910;151.156;2022-09-09T14:27:40;0.40;;;0.30;;
16113;SDS011;8161;-33.910;151.156;2022-09-09T14:30:08;0.30;;;0.20;;
16113;SDS011;8161;-33.910;151.156;2022-09-09T14:32:36;0.40;;;0.38;;
16113;SDS011;8161;-33.910;151.156;2022-09-09T14:35:03;0.95;;;0.50;;
16113;SDS011;8161;-33.910;151.156;2022-09-09T14:37:31;0.55;;;0.32;;
16113;SDS011;8161;-33.910;151.156;2022-09-09T14:39:58;0.30;;;0.30;;
16113;SDS011;8161;-33.910;151.156;2022-09-09T14:42:25;0.77;;;0.30;;
16113;SDS011;8161;-33.910;151.156;2022-09-09T14:44:53;0.30;;;0.30;;
16113;SDS011;8161;-33.910;151.156;2022-09-09T14:47:21;0.30;;;0.30;;
16113;SDS011;8161;-33.910;151.156;2022-09-09T14:49:48;0.40;;;0.30;;
16113;SDS011;8161;-33.910;151.156;2022-09-09T14:52:15;0.60;;;0.40;;
16113;SDS011;8161;-33.910;151.156;2022-09-09T14:54:43;0.28;;;0.28;;
16113;SDS011;8161;-33.910;151.156;2022-09-09T14:57:10;0.40;;;0.30;;
16113;SDS011;8161;-33.910;151.156;2022-09-09T14:59:37;0.47;;;0.40;;
16113;SDS011;8161;-33.910;151.156;2022-09-09T15:02:05;2.28;;;0.30;;
16113;SDS011;8161;-33.910;151.156;2022-09-09T15:04:34;0.38;;;0.30;;
16113;SDS011;8161;-33.910;151.156;2022-09-09T15:07:01;0.88;;;0.30;;
16113;SDS011;8161;-33.910;151.156;2022-09-09T15:09:28;0.60;;;0.35;;
16113;SDS011;8161;-33.910;151.156;2022-09-09T15:11:55;0.57;;;0.30;;
16113;SDS011;8161;-33.910;151.156;2022-09-09T15:14:23;0.22;;;0.22;;
16113;SDS011;8161;-33.910;151.156;2022-09-09T15:16:51;1.67;;;0.20;;
16113;SDS011;8161;-33.910;151.156;2022-09-09T15:19:18;2.28;;;0.30;;
16113;SDS011;8161;-33.910;151.156;2022-09-09T15:21:46;0.30;;;0.25;;
16113;SDS011;8161;-33.910;151.156;2022-09-09T15:24:14;0.30;;;0.25;;
16113;SDS011;8161;-33.910;151.156;2022-09-09T15:26:43;0.22;;;0.22;;
16113;SDS011;8161;-33.910;151.156;2022-09-09T15:29:10;0.30;;;0.30;;
16113;SDS011;8161;-33.910;151.156;2022-09-09T15:31:38;0.20;;;0.20;;
16113;SDS011;8161;-33.910;151.156;2022-09-09T15:34:06;0.47;;;0.30;;
16113;SDS011;8161;-33.910;151.156;2022-09-09T15:36:36;0.40;;;0.22;;
16113;SDS011;8161;-33.910;151.156;2022-09-09T15:39:06;0.20;;;0.20;;
16113;SDS011;8161;-33.910;151.156;2022-09-09T15:41:38;1.00;;;0.30;;
16113;SDS011;8161;-33.910;151.156;2022-09-09T15:44:05;0.20;;;0.20;;
16113;SDS011;8161;-33.910;151.156;2022-09-09T15:46:34;0.65;;;0.30;;
16113;SDS011;8161;-33.910;151.156;2022-09-09T15:49:11;0.38;;;0.30;;
16113;SDS011;8161;-33.910;151.156;2022-09-09T15:51:51;0.25;;;0.20;;
16113;SDS011;8161;-33.910;151.156;2022-09-09T15:54:19;1.58;;;0.40;;
16113;SDS011;8161;-33.910;151.156;2022-09-09T15:56:55;0.63;;;0.40;;
16113;SDS011;8161;-33.910;151.156;2022-09-09T15:59:26;0.25;;;0.25;;
16113;SDS011;8161;-33.910;151.156;2022-09-09T16:01:54;1.30;;;0.45;;
16113;SDS011;8161;-33.910;151.156;2022-09-09T16:04:26;0.30;;;0.30;;
16113;SDS011;8161;-33.910;151.156;2022-09-09T16:06:56;2.25;;;0.60;;
16113;SDS011;8161;-33.910;151.156;2022-09-09T16:09:25;0.17;;;0.17;;
16113;SDS011;8161;-33.910;151.156;2022-09-09T16:11:57;0.80;;;0.20;;
16113;SDS011;8161;-33.910;151.156;2022-09-09T16:14:31;0.30;;;0.30;;
16113;SDS011;8161;-33.910;151.156;2022-09-09T16:17:04;0.73;;;0.28;;
16113;SDS011;8161;-33.910;151.156;2022-09-09T16:19:32;0.52;;;0.40;;
16113;SDS011;8161;-33.910;151.156;2022-09-09T16:22:00;0.50;;;0.40;;
16113;SDS011;8161;-33.910;151.156;2022-09-09T16:24:28;1.15;;;0.70;;
16113;SDS011;8161;-33.910;151.156;2022-09-09T16:26:55;0.98;;;0.60;;
16113;SDS011;8161;-33.910;151.156;2022-09-09T16:29:22;1.95;;;0.77;;
16113;SDS011;8161;-33.910;151.156;2022-09-09T16:31:53;2.10;;;0.60;;
16113;SDS011;8161;-33.910;151.156;2022-09-09T16:34:20;0.88;;;0.68;;
16113;SDS011;8161;-33.910;151.156;2022-09-09T16:36:48;1.95;;;0.68;;
16113;SDS011;8161;-33.910;151.156;2022-09-09T16:39:16;0.50;;;0.40;;
16113;SDS011;8161;-33.910;151.156;2022-09-09T16:41:45;0.70;;;0.32;;
16113;SDS011;8161;-33.910;151.156;2022-09-09T16:44:14;0.57;;;0.38;;
16113;SDS011;8161;-33.910;151.156;2022-09-09T16:46:44;0.30;;;0.30;;
16113;SDS011;8161;-33.910;151.156;2022-09-09T16:49:14;0.60;;;0.30;;
16113;SDS011;8161;-33.910;151.156;2022-09-09T16:51:43;0.32;;;0.30;;
16113;SDS011;8161;-33.910;151.156;2022-09-09T16:54:12;0.20;;;0.20;;
16113;SDS011;8161;-33.910;151.156;2022-09-09T16:56:42;0.77;;;0.30;;
16113;SDS011;8161;-33.910;151.156;2022-09-09T16:59:13;0.82;;;0.32;;
16113;SDS011;8161;-33.910;151.156;2022-09-09T17:01:43;2.17;;;0.90;;
16113;SDS011;8161;-33.910;151.156;2022-09-09T17:04:13;0.60;;;0.30;;
16113;SDS011;8161;-33.910;151.156;2022-09-09T17:06:50;1.80;;;0.30;;
16113;SDS011;8161;-33.910;151.156;2022-09-09T17:09:18;0.52;;;0.20;;
16113;SDS011;8161;-33.910;151.156;2022-09-09T17:11:47;0.30;;;0.30;;
16113;SDS011;8161;-33.910;151.156;2022-09-09T17:14:19;0.75;;;0.38;;
16113;SDS011;8161;-33.910;151.156;2022-09-09T17:16:48;2.33;;;0.25;;
16113;SDS011;8161;-33.910;151.156;2022-09-09T17:19:16;0.20;;;0.20;;
16113;SDS011;8161;-33.910;151.156;2022-09-09T17:21:43;0.20;;;0.20;;
16113;SDS011;8161;-33.910;151.156;2022-09-09T17:24:17;0.28;;;0.22;;
16113;SDS011;8161;-33.910;151.156;2022-09-09T17:26:46;0.82;;;0.30;;
16113;SDS011;8161;-33.910;151.156;2022-09-09T17:29:13;0.20;;;0.20;;
16113;SDS011;8161;-33.910;151.156;2022-09-09T17:31:42;0.10;;;0.10;;
16113;SDS011;8161;-33.910;151.156;2022-09-09T17:34:09;0.47;;;0.25;;
16113;SDS011;8161;-33.910;151.156;2022-09-09T17:36:36;1.05;;;0.40;;
16113;SDS011;8161;-33.910;151.156;2022-09-09T17:39:05;0.85;;;0.30;;
16113;SDS011;8161;-33.910;151.156;2022-09-09T17:41:34;0.65;;;0.30;;
16113;SDS011;8161;-33.910;151.156;2022-09-09T17:44:03;0.55;;;0.40;;
16113;SDS011;8161;-33.910;151.156;2022-09-09T17:46:35;0.30;;;0.30;;
16113;SDS011;8161;-33.910;151.156;2022-09-09T17:49:08;0.57;;;0.20;;